Phillips Army Air Field
KAPG : rendu visible

Aérodrome :











RETROUVEZ-NOUS SUR...

 
LOGIN :

S'inscrire | Disclaimer

   EN    FR    IT 

 









Légende :    VFR   VFR Marginal   IFR   IFR Intensif   IFR Très Intensif
Visi : 
Plafond : 
>= 8 km
>= 3000ft
5 à 8 km
1000 à 3000 ft
1500m à 5 km
500 à 1000 ft
800 à 1500m
200 à 500 ft
< 800m
< 200 ft
Symboles :   Orages  Brouillard  Fortes neiges  Fortes précipitations  Vent > 20 kt






- Altitude de l'aérodrome : 57 ft


KAPG - Phillips Army Air Field

DERNIER METAR :
  • 250158Z AUTO 10006KT 10SM OVC026 18/14 A3021 RMK AO2 SLP233 T01750137 PNO TSNO $

METARs EXPIRÉS :
  • 250058Z AUTO 11005KT 10SM OVC027 18/14 A3019 RMK AO2 SLP226 T01810141 PNO TSNO $
  • 242358Z AUTO 00000KT 10SM OVC024 18/15 A3018 RMK AO2 SLP223 T01770153 10198 20173 56008 PNO TSNO $

TAF N/A
FIR KZDC / Amérique du Nord



MET'MAP, la Météo Aéronautique d'un coup d'oeil ! - Copyright ORBIFLY Décembre 2007 - Disclaimer

ORBIFLY MET'MAP TEAM :

Programmation & Développement : Alexandra Zaïnal
Sur une idée originale de : Baudouin d'Aumeries
Assistance à la programmation : Marc-Olivier Méhu
Soutien technique & logistique : Manuel Goepfert

Contact : metmap@orbifly.com




SOURCES & CREDITS :

   NOAA       Earth
Advisory